sensor_id;sensor_type;location;lat;lon;timestamp;pressure;altitude;pressure_sealevel;temperature;humidity
82986;BME280;72786;53.546;9.910;2024-01-10T00:00:34;102909.66;;;-2.48;87.89
82986;BME280;72786;53.546;9.910;2024-01-10T00:03:00;102970.84;;;-2.15;88.08
82986;BME280;72786;53.546;9.910;2024-01-10T00:05:26;102971.63;;;-2.20;88.40
82986;BME280;72786;53.546;9.910;2024-01-10T00:07:53;102889.28;;;-2.59;88.05
82986;BME280;72786;53.546;9.910;2024-01-10T00:10:20;102893.75;;;-2.62;88.22
82986;BME280;72786;53.546;9.910;2024-01-10T00:12:48;102882.25;;;-2.65;88.21
82986;BME280;72786;53.546;9.910;2024-01-10T00:15:14;102966.47;;;-2.26;88.47
82986;BME280;72786;53.546;9.910;2024-01-10T00:17:41;102958.16;;;-2.30;87.39
82986;BME280;72786;53.546;9.910;2024-01-10T00:20:07;102957.75;;;-2.27;87.74
82986;BME280;72786;53.546;9.910;2024-01-10T00:22:34;102958.50;;;-2.32;88.09
82986;BME280;72786;53.546;9.910;2024-01-10T00:25:01;102952.56;;;-2.33;88.28
82986;BME280;72786;53.546;9.910;2024-01-10T00:27:27;102841.31;;;-2.93;87.79
82986;BME280;72786;53.546;9.910;2024-01-10T00:29:54;102963.69;;;-2.27;88.22
82986;BME280;72786;53.546;9.910;2024-01-10T00:32:23;102966.19;;;-2.27;88.39
82986;BME280;72786;53.546;9.910;2024-01-10T00:34:49;102952.56;;;-2.33;87.06
82986;BME280;72786;53.546;9.910;2024-01-10T00:37:16;102977.63;;;-2.20;88.25
82986;BME280;72786;53.546;9.910;2024-01-10T00:39:42;102904.88;;;-2.56;88.42
82986;BME280;72786;53.546;9.910;2024-01-10T00:42:09;102914.59;;;-2.44;88.96
82986;BME280;72786;53.546;9.910;2024-01-10T00:44:35;102967.69;;;-2.14;88.49
82986;BME280;72786;53.546;9.910;2024-01-10T00:47:02;102966.91;;;-2.09;88.26
82986;BME280;72786;53.546;9.910;2024-01-10T00:49:29;102959.22;;;-2.05;88.19
82986;BME280;72786;53.546;9.910;2024-01-10T00:51:55;102887.34;;;-2.37;87.33
82986;BME280;72786;53.546;9.910;2024-01-10T00:54:22;102933.00;;;-2.11;87.72
82986;BME280;72786;53.546;9.910;2024-01-10T00:56:48;102889.06;;;-2.32;87.69
82986;BME280;72786;53.546;9.910;2024-01-10T00:59:16;102906.25;;;-2.20;87.86
82986;BME280;72786;53.546;9.910;2024-01-10T01:01:43;102894.50;;;-2.25;87.14
82986;BME280;72786;53.546;9.910;2024-01-10T01:04:10;102951.19;;;-1.89;87.58
82986;BME280;72786;53.546;9.910;2024-01-10T01:06:36;102947.06;;;-1.98;87.15
82986;BME280;72786;53.546;9.910;2024-01-10T01:09:03;102939.38;;;-1.94;87.08
82986;BME280;72786;53.546;9.910;2024-01-10T01:11:29;102866.81;;;-2.44;87.13
82986;BME280;72786;53.546;9.910;2024-01-10T01:13:55;102945.59;;;-2.02;86.41
82986;BME280;72786;53.546;9.910;2024-01-10T01:16:22;102886.78;;;-2.40;86.53
82986;BME280;72786;53.546;9.910;2024-01-10T01:18:49;102884.00;;;-2.51;87.27
82986;BME280;72786;53.546;9.910;2024-01-10T01:21:15;102913.25;;;-2.42;87.27
82986;BME280;72786;53.546;9.910;2024-01-10T01:23:42;102967.00;;;-2.23;87.44
82986;BME280;72786;53.546;9.910;2024-01-10T01:26:08;102857.59;;;-2.81;87.61
82986;BME280;72786;53.546;9.910;2024-01-10T01:28:35;102954.69;;;-2.30;87.76
82986;BME280;72786;53.546;9.910;2024-01-10T01:31:02;102950.72;;;-2.34;87.50
82986;BME280;72786;53.546;9.910;2024-01-10T01:33:29;102954.66;;;-2.40;87.45
82986;BME280;72786;53.546;9.910;2024-01-10T01:35:55;102945.41;;;-2.45;87.82
82986;BME280;72786;53.546;9.910;2024-01-10T01:38:22;102943.75;;;-2.63;87.70
82986;BME280;72786;53.546;9.910;2024-01-10T01:40:48;102937.91;;;-2.68;88.63
82986;BME280;72786;53.546;9.910;2024-01-10T01:43:23;102956.59;;;-2.62;88.47
82986;BME280;72786;53.546;9.910;2024-01-10T01:45:54;102957.22;;;-2.63;88.61
82986;BME280;72786;53.546;9.910;2024-01-10T01:48:23;102945.06;;;-2.65;89.05
82986;BME280;72786;53.546;9.910;2024-01-10T01:50:52;102909.44;;;-2.82;87.92
82986;BME280;72786;53.546;9.910;2024-01-10T01:53:20;102900.13;;;-2.96;89.02
82986;BME280;72786;53.546;9.910;2024-01-10T01:55:47;102867.56;;;-3.09;89.05
82986;BME280;72786;53.546;9.910;2024-01-10T01:58:14;102955.59;;;-2.72;88.67
82986;BME280;72786;53.546;9.910;2024-01-10T02:00:41;102947.41;;;-2.71;87.96
82986;BME280;72786;53.546;9.910;2024-01-10T02:03:09;102941.72;;;-2.79;88.17
82986;BME280;72786;53.546;9.910;2024-01-10T02:05:36;102935.34;;;-2.87;88.72
82986;BME280;72786;53.546;9.910;2024-01-10T02:08:03;102893.34;;;-3.10;89.43
82986;BME280;72786;53.546;9.910;2024-01-10T02:10:30;102916.78;;;-2.97;89.22
82986;BME280;72786;53.546;9.910;2024-01-10T02:12:56;102961.81;;;-2.79;89.40
82986;BME280;72786;53.546;9.910;2024-01-10T02:15:23;102960.22;;;-2.79;90.26
82986;BME280;72786;53.546;9.910;2024-01-10T02:17:50;102951.06;;;-2.88;89.78
82986;BME280;72786;53.546;9.910;2024-01-10T02:20:17;102919.28;;;-2.97;90.21
82986;BME280;72786;53.546;9.910;2024-01-10T02:22:44;102947.91;;;-2.87;90.43
82986;BME280;72786;53.546;9.910;2024-01-10T02:25:11;102950.50;;;-2.91;90.59
82986;BME280;72786;53.546;9.910;2024-01-10T02:27:39;102946.19;;;-2.82;90.81
82986;BME280;72786;53.546;9.910;2024-01-10T02:30:07;102939.81;;;-2.90;89.86
82986;BME280;72786;53.546;9.910;2024-01-10T02:32:35;102879.28;;;-3.23;90.64
82986;BME280;72786;53.546;9.910;2024-01-10T02:35:02;102941.03;;;-2.88;90.25
82986;BME280;72786;53.546;9.910;2024-01-10T02:37:29;102933.91;;;-2.81;90.40
82986;BME280;72786;53.546;9.910;2024-01-10T02:39:55;102958.25;;;-2.76;90.64
82986;BME280;72786;53.546;9.910;2024-01-10T02:42:22;102813.16;;;-3.37;90.93
82986;BME280;72786;53.546;9.910;2024-01-10T02:44:48;102944.81;;;-2.67;90.81
82986;BME280;72786;53.546;9.910;2024-01-10T02:47:15;102943.63;;;-2.59;90.88
82986;BME280;72786;53.546;9.910;2024-01-10T02:49:41;102811.50;;;-3.23;90.60
82986;BME280;72786;53.546;9.910;2024-01-10T02:52:08;102885.13;;;-2.77;90.03
82986;BME280;72786;53.546;9.910;2024-01-10T02:54:35;102903.94;;;-2.66;89.78
82986;BME280;72786;53.546;9.910;2024-01-10T02:57:01;102945.91;;;-2.42;89.62
82986;BME280;72786;53.546;9.910;2024-01-10T02:59:28;102951.66;;;-2.33;89.73
82986;BME280;72786;53.546;9.910;2024-01-10T03:01:54;102936.94;;;-2.36;90.02
82986;BME280;72786;53.546;9.910;2024-01-10T03:04:21;102948.19;;;-2.34;89.12
82986;BME280;72786;53.546;9.910;2024-01-10T03:06:47;102948.84;;;-2.26;88.89
82986;BME280;72786;53.546;9.910;2024-01-10T03:09:14;102955.25;;;-2.18;89.80
82986;BME280;72786;53.546;9.910;2024-01-10T03:11:40;102934.16;;;-2.28;88.92
82986;BME280;72786;53.546;9.910;2024-01-10T03:14:08;102953.22;;;-2.25;88.56
82986;BME280;72786;53.546;9.910;2024-01-10T03:16:35;102956.03;;;-2.23;89.15
82986;BME280;72786;53.546;9.910;2024-01-10T03:19:02;102924.13;;;-2.28;88.90
82986;BME280;72786;53.546;9.910;2024-01-10T03:21:29;102943.06;;;-2.11;89.79
82986;BME280;72786;53.546;9.910;2024-01-10T03:23:57;102937.09;;;-2.21;89.21
82986;BME280;72786;53.546;9.910;2024-01-10T03:26:24;102911.03;;;-2.31;89.22
82986;BME280;72786;53.546;9.910;2024-01-10T03:28:51;102918.97;;;-2.24;89.76
82986;BME280;72786;53.546;9.910;2024-01-10T03:31:18;102858.44;;;-2.58;89.12
82986;BME280;72786;53.546;9.910;2024-01-10T03:33:45;102909.44;;;-2.21;89.25
82986;BME280;72786;53.546;9.910;2024-01-10T03:36:14;102908.66;;;-2.16;89.79
82986;BME280;72786;53.546;9.910;2024-01-10T03:38:41;102859.16;;;-2.40;89.06
82986;BME280;72786;53.546;9.910;2024-01-10T03:41:12;102896.34;;;-2.24;88.89
82986;BME280;72786;53.546;9.910;2024-01-10T03:43:39;102916.88;;;-2.17;88.59
82986;BME280;72786;53.546;9.910;2024-01-10T03:46:05;102920.84;;;-2.23;88.75
82986;BME280;72786;53.546;9.910;2024-01-10T03:48:32;102829.56;;;-2.79;89.50
82986;BME280;72786;53.546;9.910;2024-01-10T03:50:58;102919.75;;;-2.29;89.44
82986;BME280;72786;53.546;9.910;2024-01-10T03:53:25;102890.50;;;-2.47;89.56
82986;BME280;72786;53.546;9.910;2024-01-10T03:55:51;102896.03;;;-2.44;90.41
82986;BME280;72786;53.546;9.910;2024-01-10T03:58:18;102906.66;;;-2.41;89.71
82986;BME280;72786;53.546;9.910;2024-01-10T04:00:44;102919.63;;;-2.44;89.19
82986;BME280;72786;53.546;9.910;2024-01-10T04:03:11;102913.53;;;-2.40;89.61
82986;BME280;72786;53.546;9.910;2024-01-10T04:05:37;102928.47;;;-2.36;88.88
82986;BME280;72786;53.546;9.910;2024-01-10T04:08:04;102910.63;;;-2.38;89.68
82986;BME280;72786;53.546;9.910;2024-01-10T04:10:31;102920.78;;;-2.42;88.80
82986;BME280;72786;53.546;9.910;2024-01-10T04:12:57;102921.59;;;-2.37;89.35
82986;BME280;72786;53.546;9.910;2024-01-10T04:15:24;102911.69;;;-2.32;89.19
82986;BME280;72786;53.546;9.910;2024-01-10T04:17:50;102906.00;;;-2.31;89.23
82986;BME280;72786;53.546;9.910;2024-01-10T04:20:17;102920.28;;;-2.26;89.52
82986;BME280;72786;53.546;9.910;2024-01-10T04:22:43;102904.16;;;-2.32;88.84
82986;BME280;72786;53.546;9.910;2024-01-10T04:25:11;102838.72;;;-2.70;89.62
82986;BME280;72786;53.546;9.910;2024-01-10T04:27:37;102902.44;;;-2.37;89.32
82986;BME280;72786;53.546;9.910;2024-01-10T04:30:04;102895.25;;;-2.39;89.69
82986;BME280;72786;53.546;9.910;2024-01-10T04:32:31;102909.03;;;-2.37;89.68
82986;BME280;72786;53.546;9.910;2024-01-10T04:34:58;102895.53;;;-2.38;89.75
82986;BME280;72786;53.546;9.910;2024-01-10T04:37:24;102914.88;;;-2.24;90.10
82986;BME280;72786;53.546;9.910;2024-01-10T04:39:52;102839.03;;;-2.59;89.45
82986;BME280;72786;53.546;9.910;2024-01-10T04:42:18;102919.25;;;-2.13;89.98
82986;BME280;72786;53.546;9.910;2024-01-10T04:44:45;102917.13;;;-2.06;89.92
82986;BME280;72786;53.546;9.910;2024-01-10T04:47:11;102912.75;;;-1.98;89.92
82986;BME280;72786;53.546;9.910;2024-01-10T04:49:38;102834.25;;;-2.29;89.89
82986;BME280;72786;53.546;9.910;2024-01-10T04:52:05;102769.44;;;-2.64;89.48
82986;BME280;72786;53.546;9.910;2024-01-10T04:54:31;102826.47;;;-2.30;89.44
82986;BME280;72786;53.546;9.910;2024-01-10T04:56:57;102898.72;;;-1.82;90.20
82986;BME280;72786;53.546;9.910;2024-01-10T04:59:24;102908.53;;;-1.74;89.96
82986;BME280;72786;53.546;9.910;2024-01-10T05:01:50;102894.47;;;-1.68;89.88
82986;BME280;72786;53.546;9.910;2024-01-10T05:04:17;102895.28;;;-1.64;90.05
82986;BME280;72786;53.546;9.910;2024-01-10T05:06:44;102870.78;;;-1.74;89.68
82986;BME280;72786;53.546;9.910;2024-01-10T05:09:10;102868.78;;;-1.71;89.98
82986;BME280;72786;53.546;9.910;2024-01-10T05:11:37;102896.72;;;-1.60;89.32
82986;BME280;72786;53.546;9.910;2024-01-10T05:14:03;102899.25;;;-1.60;89.22
82986;BME280;72786;53.546;9.910;2024-01-10T05:16:30;102864.41;;;-1.72;89.65
82986;BME280;72786;53.546;9.910;2024-01-10T05:19:00;102815.72;;;-1.92;89.46
82986;BME280;72786;53.546;9.910;2024-01-10T05:21:27;102863.22;;;-1.65;89.31
82986;BME280;72786;53.546;9.910;2024-01-10T05:23:53;102894.31;;;-1.46;89.43
82986;BME280;72786;53.546;9.910;2024-01-10T05:26:20;102866.34;;;-1.47;89.35
82986;BME280;72786;53.546;9.910;2024-01-10T05:28:46;102806.00;;;-1.75;88.96
82986;BME280;72786;53.546;9.910;2024-01-10T05:31:13;102886.31;;;-1.34;89.22
82986;BME280;72786;53.546;9.910;2024-01-10T05:33:39;102853.78;;;-1.56;89.08
82986;BME280;72786;53.546;9.910;2024-01-10T05:36:06;102871.28;;;-1.52;88.82
82986;BME280;72786;53.546;9.910;2024-01-10T05:38:33;102893.78;;;-1.49;89.33
82986;BME280;72786;53.546;9.910;2024-01-10T05:40:59;102804.97;;;-1.81;88.90
82986;BME280;72786;53.546;9.910;2024-01-10T05:43:25;102883.44;;;-1.41;89.13
82986;BME280;72786;53.546;9.910;2024-01-10T05:45:52;102884.25;;;-1.46;88.75
82986;BME280;72786;53.546;9.910;2024-01-10T05:48:18;102868.88;;;-1.56;88.27
82986;BME280;72786;53.546;9.910;2024-01-10T05:50:45;102896.41;;;-1.43;89.24
82986;BME280;72786;53.546;9.910;2024-01-10T05:53:11;102886.59;;;-1.42;89.12
82986;BME280;72786;53.546;9.910;2024-01-10T05:55:40;102815.03;;;-1.81;88.87
82986;BME280;72786;53.546;9.910;2024-01-10T05:58:06;102889.94;;;-1.47;89.11
82986;BME280;72786;53.546;9.910;2024-01-10T06:00:35;102882.00;;;-1.53;88.66
82986;BME280;72786;53.546;9.910;2024-01-10T06:03:02;102874.56;;;-1.57;89.00
82986;BME280;72786;53.546;9.910;2024-01-10T06:05:28;102890.25;;;-1.64;88.82
82986;BME280;72786;53.546;9.910;2024-01-10T06:07:55;102887.44;;;-1.56;88.27
82986;BME280;72786;53.546;9.910;2024-01-10T06:10:21;102858.72;;;-1.71;88.66
82986;BME280;72786;53.546;9.910;2024-01-10T06:12:48;102883.56;;;-1.54;88.21
82986;BME280;72786;53.546;9.910;2024-01-10T06:15:15;102880.97;;;-1.59;88.62
82986;BME280;72786;53.546;9.910;2024-01-10T06:17:41;102882.66;;;-1.54;88.63
82986;BME280;72786;53.546;9.910;2024-01-10T06:20:08;102878.13;;;-1.52;88.60
82986;BME280;72786;53.546;9.910;2024-01-10T06:22:35;102811.47;;;-1.87;88.45
82986;BME280;72786;53.546;9.910;2024-01-10T06:25:02;102802.31;;;-1.87;88.69
82986;BME280;72786;53.546;9.910;2024-01-10T06:27:28;102876.31;;;-1.52;88.53
82986;BME280;72786;53.546;9.910;2024-01-10T06:29:56;102887.91;;;-1.44;88.36
82986;BME280;72786;53.546;9.910;2024-01-10T06:32:23;102851.03;;;-1.67;88.19
82986;BME280;72786;53.546;9.910;2024-01-10T06:34:49;102823.25;;;-1.82;88.34
82986;BME280;72786;53.546;9.910;2024-01-10T06:37:16;102876.94;;;-1.44;88.37
82986;BME280;72786;53.546;9.910;2024-01-10T06:39:42;102885.78;;;-1.37;88.69
82986;BME280;72786;53.546;9.910;2024-01-10T06:42:10;102812.09;;;-1.69;88.58
82986;BME280;72786;53.546;9.910;2024-01-10T06:44:38;102891.34;;;-1.34;88.52
82986;BME280;72786;53.546;9.910;2024-01-10T06:47:05;102892.97;;;-1.44;88.25
82986;BME280;72786;53.546;9.910;2024-01-10T06:49:31;102805.09;;;-1.85;87.03
82986;BME280;72786;53.546;9.910;2024-01-10T06:51:58;102830.53;;;-1.74;87.77
82986;BME280;72786;53.546;9.910;2024-01-10T06:54:26;102884.63;;;-1.39;88.07
82986;BME280;72786;53.546;9.910;2024-01-10T06:56:53;102898.53;;;-1.41;87.43
82986;BME280;72786;53.546;9.910;2024-01-10T06:59:19;102868.59;;;-1.49;88.06
82986;BME280;72786;53.546;9.910;2024-01-10T07:01:51;102878.66;;;-1.49;88.37
82986;BME280;72786;53.546;9.910;2024-01-10T07:04:18;102875.03;;;-1.36;88.24
82986;BME280;72786;53.546;9.910;2024-01-10T07:06:47;102834.22;;;-1.63;88.28
82986;BME280;72786;53.546;9.910;2024-01-10T07:09:13;102883.81;;;-1.34;88.10
82986;BME280;72786;53.546;9.910;2024-01-10T07:11:47;102886.44;;;-1.28;88.19
82986;BME280;72786;53.546;9.910;2024-01-10T07:14:16;102887.22;;;-1.33;87.49
82986;BME280;72786;53.546;9.910;2024-01-10T07:16:43;102878.59;;;-1.30;87.87
82986;BME280;72786;53.546;9.910;2024-01-10T07:19:12;102819.75;;;-1.64;88.08
82986;BME280;72786;53.546;9.910;2024-01-10T07:21:40;102882.97;;;-1.29;88.03
82986;BME280;72786;53.546;9.910;2024-01-10T07:24:07;102890.31;;;-1.40;86.76
82986;BME280;72786;53.546;9.910;2024-01-10T07:26:36;102862.25;;;-1.47;87.24
82986;BME280;72786;53.546;9.910;2024-01-10T07:29:03;102884.63;;;-1.39;87.97
82986;BME280;72786;53.546;9.910;2024-01-10T07:31:29;102875.22;;;-1.40;87.13
82986;BME280;72786;53.546;9.910;2024-01-10T07:33:56;102871.50;;;-1.42;87.47
82986;BME280;72786;53.546;9.910;2024-01-10T07:36:24;102893.72;;;-1.30;87.94
82986;BME280;72786;53.546;9.910;2024-01-10T07:38:53;102866.59;;;-1.36;87.98
82986;BME280;72786;53.546;9.910;2024-01-10T07:41:19;102874.94;;;-1.32;87.81
82986;BME280;72786;53.546;9.910;2024-01-10T07:43:46;102816.06;;;-1.66;87.03
82986;BME280;72786;53.546;9.910;2024-01-10T07:46:13;102897.31;;;-1.33;87.99
82986;BME280;72786;53.546;9.910;2024-01-10T07:48:39;102900.47;;;-1.34;87.90
82986;BME280;72786;53.546;9.910;2024-01-10T07:51:06;102882.59;;;-1.36;86.94
82986;BME280;72786;53.546;9.910;2024-01-10T07:53:33;102806.44;;;-1.78;87.69
82986;BME280;72786;53.546;9.910;2024-01-10T07:56:00;102892.69;;;-1.36;87.62
82986;BME280;72786;53.546;9.910;2024-01-10T07:58:26;102892.84;;;-1.40;86.94
82986;BME280;72786;53.546;9.910;2024-01-10T08:00:53;102891.84;;;-1.31;87.42
82986;BME280;72786;53.546;9.910;2024-01-10T08:03:20;102767.94;;;-1.92;87.83
82986;BME280;72786;53.546;9.910;2024-01-10T08:05:47;102821.31;;;-1.55;87.60
82986;BME280;72786;53.546;9.910;2024-01-10T08:08:14;102815.88;;;-1.52;87.53
82986;BME280;72786;53.546;9.910;2024-01-10T08:10:40;102895.91;;;-1.12;87.46
82986;BME280;72786;53.546;9.910;2024-01-10T08:13:07;102896.97;;;-1.16;87.27
82986;BME280;72786;53.546;9.910;2024-01-10T08:15:33;102907.75;;;-1.17;87.06
82986;BME280;72786;53.546;9.910;2024-01-10T08:18:00;102905.22;;;-1.17;87.73
82986;BME280;72786;53.546;9.910;2024-01-10T08:20:30;102922.97;;;-1.11;87.69
82986;BME280;72786;53.546;9.910;2024-01-10T08:22:57;102844.09;;;-1.50;87.45
82986;BME280;72786;53.546;9.910;2024-01-10T08:25:23;102902.34;;;-1.24;87.13
82986;BME280;72786;53.546;9.910;2024-01-10T08:27:50;102831.50;;;-1.50;87.42
82986;BME280;72786;53.546;9.910;2024-01-10T08:30:19;102890.50;;;-1.10;87.04
82986;BME280;72786;53.546;9.910;2024-01-10T08:32:48;102838.59;;;-1.38;86.93
82986;BME280;72786;53.546;9.910;2024-01-10T08:35:15;102903.13;;;-0.95;87.38
82986;BME280;72786;53.546;9.910;2024-01-10T08:37:42;102911.38;;;-0.96;87.37
82986;BME280;72786;53.546;9.910;2024-01-10T08:40:12;102886.97;;;-1.01;86.29
82986;BME280;72786;53.546;9.910;2024-01-10T08:42:41;102843.13;;;-1.41;86.11
82986;BME280;72786;53.546;9.910;2024-01-10T08:45:09;102915.91;;;-0.99;86.09
82986;BME280;72786;53.546;9.910;2024-01-10T08:47:37;102898.91;;;-1.00;87.26
82986;BME280;72786;53.546;9.910;2024-01-10T08:50:04;102902.63;;;-0.98;86.88
82986;BME280;72786;53.546;9.910;2024-01-10T08:52:31;102906.72;;;-0.98;86.31
82986;BME280;72786;53.546;9.910;2024-01-10T08:54:58;102900.63;;;-0.95;86.69
82986;BME280;72786;53.546;9.910;2024-01-10T08:57:25;102887.28;;;-1.09;86.10
82986;BME280;72786;53.546;9.910;2024-01-10T08:59:53;102864.56;;;-1.24;85.98
82986;BME280;72786;53.546;9.910;2024-01-10T09:02:20;102910.66;;;-1.10;86.60
82986;BME280;72786;53.546;9.910;2024-01-10T09:04:46;102914.19;;;-1.04;86.71
82986;BME280;72786;53.546;9.910;2024-01-10T09:07:13;102895.22;;;-1.02;86.85
82986;BME280;72786;53.546;9.910;2024-01-10T09:09:39;102829.44;;;-1.28;86.78
82986;BME280;72786;53.546;9.910;2024-01-10T09:12:06;102852.28;;;-1.07;86.26
82986;BME280;72786;53.546;9.910;2024-01-10T09:14:32;102834.41;;;-1.18;86.93
82986;BME280;72786;53.546;9.910;2024-01-10T09:16:59;102876.59;;;-0.93;87.15
82986;BME280;72786;53.546;9.910;2024-01-10T09:19:29;102854.88;;;-1.02;86.70
82986;BME280;72786;53.546;9.910;2024-01-10T09:21:56;102870.75;;;-0.88;86.62
82986;BME280;72786;53.546;9.910;2024-01-10T09:24:23;102819.47;;;-1.22;86.59
82986;BME280;72786;53.546;9.910;2024-01-10T09:26:55;102876.47;;;-0.89;86.17
82986;BME280;72786;53.546;9.910;2024-01-10T09:29:23;102748.28;;;-1.46;86.04
82986;BME280;72786;53.546;9.910;2024-01-10T09:31:51;102868.28;;;-0.73;86.36
82986;BME280;72786;53.546;9.910;2024-01-10T09:34:18;102879.34;;;-0.82;85.71
82986;BME280;72786;53.546;9.910;2024-01-10T09:36:45;102863.28;;;-0.82;86.20
82986;BME280;72786;53.546;9.910;2024-01-10T09:39:12;102788.78;;;-1.10;86.12
82986;BME280;72786;53.546;9.910;2024-01-10T09:41:45;102867.16;;;-0.60;86.10
82986;BME280;72786;53.546;9.910;2024-01-10T09:44:13;102803.69;;;-0.97;85.90
82986;BME280;72786;53.546;9.910;2024-01-10T09:46:40;102866.81;;;-0.52;85.74
82986;BME280;72786;53.546;9.910;2024-01-10T09:49:07;102865.16;;;-0.42;85.96
82986;BME280;72786;53.546;9.910;2024-01-10T09:51:34;102860.91;;;-0.38;85.78
82986;BME280;72786;53.546;9.910;2024-01-10T09:54:02;102865.16;;;-0.42;85.57
82986;BME280;72786;53.546;9.910;2024-01-10T09:56:30;102862.81;;;-0.31;86.11
82986;BME280;72786;53.546;9.910;2024-01-10T09:59:00;102869.13;;;-0.39;85.63
82986;BME280;72786;53.546;9.910;2024-01-10T10:01:27;102859.69;;;-0.40;85.78
82986;BME280;72786;53.546;9.910;2024-01-10T10:03:56;102806.97;;;-0.68;85.32
82986;BME280;72786;53.546;9.910;2024-01-10T10:06:23;102855.25;;;-0.46;85.40
82986;BME280;72786;53.546;9.910;2024-01-10T10:08:50;102864.75;;;-0.40;85.46
82986;BME280;72786;53.546;9.910;2024-01-10T10:11:16;102805.53;;;-0.72;84.93
82986;BME280;72786;53.546;9.910;2024-01-10T10:13:43;102861.00;;;-0.32;84.49
82986;BME280;72786;53.546;9.910;2024-01-10T10:16:10;102865.19;;;-0.27;84.82
82986;BME280;72786;53.546;9.910;2024-01-10T10:18:40;102861.00;;;-0.32;84.13
82986;BME280;72786;53.546;9.910;2024-01-10T10:21:10;102861.50;;;-0.29;83.79
82986;BME280;72786;53.546;9.910;2024-01-10T10:23:39;102852.00;;;-0.36;84.39
82986;BME280;72786;53.546;9.910;2024-01-10T10:26:16;102847.72;;;-0.56;83.94
82986;BME280;72786;53.546;9.910;2024-01-10T10:28:47;102843.78;;;-0.59;83.83
82986;BME280;72786;53.546;9.910;2024-01-10T10:31:15;102863.06;;;-0.45;83.69
82986;BME280;72786;53.546;9.910;2024-01-10T10:33:43;102816.03;;;-0.59;83.96
82986;BME280;72786;53.546;9.910;2024-01-10T10:36:13;102794.84;;;-0.65;84.22
82986;BME280;72786;53.546;9.910;2024-01-10T10:38:40;102857.44;;;-0.38;83.36
82986;BME280;72786;53.546;9.910;2024-01-10T10:41:07;102835.75;;;-0.47;83.06
82986;BME280;72786;53.546;9.910;2024-01-10T10:43:38;102756.50;;;-0.98;83.60
82986;BME280;72786;53.546;9.910;2024-01-10T10:46:06;102807.13;;;-0.57;82.65
82986;BME280;72786;53.546;9.910;2024-01-10T10:48:34;102874.69;;;-0.21;83.40
82986;BME280;72786;53.546;9.910;2024-01-10T10:51:10;102775.03;;;-0.43;82.88
82986;BME280;72786;53.546;9.910;2024-01-10T10:53:42;102868.56;;;-0.03;83.15
82986;BME280;72786;53.546;9.910;2024-01-10T10:56:10;102855.25;;;-0.16;82.92
82986;BME280;72786;53.546;9.910;2024-01-10T10:58:48;102875.09;;;-0.23;81.74
82986;BME280;72786;53.546;9.910;2024-01-10T11:01:15;102878.66;;;-0.32;81.09
82986;BME280;72786;53.546;9.910;2024-01-10T11:03:42;102862.22;;;-0.40;81.48
82986;BME280;72786;53.546;9.910;2024-01-10T11:06:13;102862.81;;;-0.46;81.42
82986;BME280;72786;53.546;9.910;2024-01-10T11:08:45;102866.34;;;-0.40;81.63
82986;BME280;72786;53.546;9.910;2024-01-10T11:19:51;102863.88;;;-0.25;81.69
82986;BME280;72786;53.546;9.910;2024-01-10T11:25:05;102871.22;;;-0.36;81.98
82986;BME280;72786;53.546;9.910;2024-01-10T11:27:31;102859.59;;;-0.45;83.17
82986;BME280;72786;53.546;9.910;2024-01-10T11:29:58;102815.03;;;-0.65;82.03
82986;BME280;72786;53.546;9.910;2024-01-10T11:32:26;102846.25;;;-0.35;82.13
82986;BME280;72786;53.546;9.910;2024-01-10T11:37:19;102852.09;;;0.14;81.81
82986;BME280;72786;53.546;9.910;2024-01-10T11:39:46;102859.63;;;0.44;79.81
82986;BME280;72786;53.546;9.910;2024-01-10T11:42:21;102802.22;;;0.43;79.19
82986;BME280;72786;53.546;9.910;2024-01-10T11:44:49;102847.34;;;0.92;77.81
82986;BME280;72786;53.546;9.910;2024-01-10T11:47:16;102842.69;;;1.04;76.05
82986;BME280;72786;53.546;9.910;2024-01-10T11:49:58;102837.97;;;1.17;76.03
82986;BME280;72786;53.546;9.910;2024-01-10T11:52:32;102842.94;;;1.32;75.42
82986;BME280;72786;53.546;9.910;2024-01-10T11:54:58;102816.81;;;0.96;74.75
82986;BME280;72786;53.546;9.910;2024-01-10T11:57:26;102842.97;;;0.91;74.75
82986;BME280;72786;53.546;9.910;2024-01-10T11:59:56;102846.72;;;1.19;75.66
82986;BME280;72786;53.546;9.910;2024-01-10T12:02:23;102853.84;;;1.42;74.21
82986;BME280;72786;53.546;9.910;2024-01-10T12:04:51;102835.84;;;1.60;73.77
82986;BME280;72786;53.546;9.910;2024-01-10T12:07:18;102845.78;;;1.64;72.84
82986;BME280;72786;53.546;9.910;2024-01-10T12:09:47;102829.22;;;1.92;73.84
82986;BME280;72786;53.546;9.910;2024-01-10T12:12:14;102779.53;;;1.67;72.35
82986;BME280;72786;53.546;9.910;2024-01-10T12:14:42;102769.63;;;1.37;73.13
82986;BME280;72786;53.546;9.910;2024-01-10T12:17:12;102823.31;;;1.77;73.32
82986;BME280;72786;53.546;9.910;2024-01-10T12:19:38;102835.00;;;1.71;72.85
82986;BME280;72786;53.546;9.910;2024-01-10T12:22:05;102831.31;;;1.38;72.66
82986;BME280;72786;53.546;9.910;2024-01-10T12:24:34;102832.94;;;1.43;73.62
82986;BME280;72786;53.546;9.910;2024-01-10T12:27:04;102816.59;;;1.41;73.24
82986;BME280;72786;53.546;9.910;2024-01-10T12:29:31;102805.72;;;1.31;73.25
82986;BME280;72786;53.546;9.910;2024-01-10T12:31:57;102825.44;;;1.53;73.71
82986;BME280;72786;53.546;9.910;2024-01-10T12:34:24;102818.13;;;1.60;73.48
82986;BME280;72786;53.546;9.910;2024-01-10T12:36:54;102816.28;;;1.59;73.83
82986;BME280;72786;53.546;9.910;2024-01-10T12:39:20;102754.19;;;1.61;73.49
82986;BME280;72786;53.546;9.910;2024-01-10T12:41:50;102778.84;;;1.99;73.57
82986;BME280;72786;53.546;9.910;2024-01-10T12:44:16;102804.72;;;2.13;73.69
82986;BME280;72786;53.546;9.910;2024-01-10T12:46:50;102797.28;;;2.09;72.68
82986;BME280;72786;53.546;9.910;2024-01-10T12:49:22;102694.34;;;1.56;72.57
82986;BME280;72786;53.546;9.910;2024-01-10T12:51:49;102799.41;;;2.12;71.09
82986;BME280;72786;53.546;9.910;2024-01-10T12:54:16;102800.63;;;2.30;69.82
82986;BME280;72786;53.546;9.910;2024-01-10T12:56:43;102797.09;;;2.61;69.95
82986;BME280;72786;53.546;9.910;2024-01-10T12:59:10;102804.94;;;2.68;70.43
82986;BME280;72786;53.546;9.910;2024-01-10T13:01:37;102798.97;;;2.67;70.35
82986;BME280;72786;53.546;9.910;2024-01-10T13:04:04;102779.56;;;2.57;69.12